Wellsboro, Indiana
Current Conditions -  °F | °C
As of 8:35 AM on Monday 20 Oct 2014 (Local Time) from KPPO Reporting Station
Broken Clouds Broken Clouds  
Wind Chill: 51°   Ceiling: 11000
Heat Index: 51°   Visibility: 10mi
Dew Point: 49°   Wind: 6mph
Humidity: 92%   Direction: 210°SSW
Pressure: 29.85"   Gusts: NA
Location:  41.4682°N, 86.7611°W
Report Text: KPPO 201335Z AUTO 21005KT 10SM SCT065 SCT085 BKN110 10/09 A2985 RMK AO2 LTG DSNT E P0005 T01040092
Loading
Personal Weather Stations






























Interactive Weather Map
Tropical Storm Tracking
New forecast layout! Learn more

10-Day Weather Forecast

Advertisements
Track Severe Weather on mobile